Date,TemperatureHighF,TemperatureAvgF,TemperatureLowF,DewpointHighF,DewpointAvgF,DewpointLowF,HumidityHigh,HumidityAvg,HumidityLow,PressureMaxIn,PressureMinIn,WindSpeedMaxMPH,WindSpeedAvgMPH,GustSpeedMaxMPH,PrecipitationSumIn
2013-1-1,38.0,33.5,27.0,38.0,31.7,21.0,100,93,77,0.00,40.00,12,4,21,0.00
2013-1-2,32.0,27.0,23.0,23.0,19.5,16.0,86,74,58,0.00,40.00,7,3,12,0.00
2013-1-3,41.0,31.4,25.0,31.0,27.1,23.0,99,85,63,0.00,40.00,5,2,9,0.00
2013-1-4,44.0,34.5,27.0,33.0,30.4,27.0,100,86,55,0.00,40.00,8,3,12,0.00
2013-1-5,43.0,36.9,31.0,36.0,33.1,29.0,95,86,73,0.00,40.00,9,5,13,0.00
2013-1-6,44.0,35.9,28.0,39.0,32.3,27.0,100,88,62,0.00,40.00,9,4,15,0.00
2013-1-7,47.0,34.3,26.0,34.0,28.5,25.0,98,81,52,0.00,40.00,6,2,12,0.00
2013-1-8,55.0,42.7,30.0,43.0,35.0,27.0,93,75,56,0.00,40.00,10,2,13,0.00
2013-1-9,56.0,50.2,46.0,49.0,44.9,39.0,97,83,72,0.00,40.00,8,3,14,0.00
2013-1-10,66.0,57.3,47.0,64.0,56.0,44.0,100,96,83,0.00,40.00,20,9,29,0.00
2013-1-11,63.0,56.9,52.0,59.0,52.6,49.0,99,86,67,0.00,40.00,17,9,25,0.00
2013-1-12,69.0,63.4,49.0,68.0,62.2,48.0,100,96,85,0.00,40.00,20,8,28,0.00
2013-1-13,48.0,35.1,27.0,48.0,33.2,22.0,100,92,79,0.00,40.00,17,9,27,0.00
2013-1-14,29.0,26.4,24.0,23.0,20.9,18.0,86,79,72,0.00,40.00,11,8,20,0.00
2013-1-15,31.0,27.2,24.0,29.0,24.4,21.0,99,89,69,0.00,40.00,12,7,18,0.00
2013-1-16,34.0,31.4,29.0,29.0,26.8,25.0,94,84,75,0.00,40.00,7,3,12,0.00
2013-1-17,45.0,34.7,27.0,37.0,28.9,23.0,99,80,67,0.00,40.00,15,5,23,0.00
2013-1-18,47.0,36.8,27.0,35.0,29.9,25.0,98,77,58,0.00,40.00,12,5,18,0.00
2013-1-19,55.0,44.3,36.0,43.0,36.4,31.0,87,74,62,0.00,40.00,20,12,27,0.00
2013-1-20,47.0,40.0,32.0,37.0,30.6,24.0,91,70,43,0.00,40.00,7,4,13,0.00
2013-1-21,37.0,30.7,26.0,25.0,19.3,14.0,82,63,44,0.00,40.00,9,5,16,0.00
2013-1-22,29.0,25.4,22.0,18.0,10.3,3.0,71,52,42,0.00,40.00,7,4,13,0.00
2013-1-23,48.0,34.9,24.0,38.0,26.4,15.0,99,72,57,0.00,40.00,10,4,13,0.00
2013-1-24,38.0,31.9,27.0,33.0,19.5,12.0,87,61,47,0.00,40.00,11,6,22,0.00
2013-1-25,41.0,34.7,31.0,31.0,27.1,17.0,91,74,49,0.00,40.00,7,3,12,0.00
2013-1-26,48.0,38.3,32.0,33.0,30.6,28.0,100,76,49,0.00,40.00,7,2,13,0.00
2013-1-27,55.0,46.0,33.0,50.0,39.7,27.0,87,79,71,0.00,40.00,13,6,18,0.00
2013-1-28,65.0,60.7,55.0,61.0,57.1,50.0,95,88,81,0.00,40.00,16,12,22,0.00
2013-1-29,72.0,64.4,54.0,62.0,59.0,54.0,100,83,64,0.00,40.00,26,15,41,0.00
2013-1-30,56.0,46.7,34.0,54.0,40.8,23.0,100,81,58,0.00,40.00,19,11,32,0.00
2013-1-31,47.0,37.1,26.0,34.0,26.8,9.0,99,67,51,0.00,40.00,16,10,31,0.00
2013-2-1,29.0,23.6,16.0,20.0,9.7,2.0,69,55,46,0.00,40.00,11,4,21,0.00
2013-2-2,46.0,36.0,29.0,35.0,27.6,19.0,89,72,57,0.00,40.00,11,5,16,0.00
2013-2-3,49.0,41.4,34.0,33.0,28.6,19.0,88,63,31,0.00,40.00,12,5,20,0.00
2013-2-4,45.0,41.2,35.0,43.0,35.7,28.0,99,81,64,0.00,40.00,12,7,15,0.00
2013-2-5,50.0,41.4,36.0,47.0,40.3,34.0,100,96,87,0.00,40.00,11,4,13,0.00
2013-2-6,55.0,44.6,34.0,40.0,35.9,32.0,100,74,49,0.00,40.00,6,2,13,0.00
2013-2-7,63.0,53.2,42.0,56.0,45.9,34.0,100,77,61,0.00,40.00,9,4,12,0.00
2013-2-8,54.0,40.7,33.0,54.0,35.9,30.0,100,83,74,0.00,40.00,15,8,25,0.00
2013-2-9,48.0,39.9,33.0,38.0,32.1,28.0,85,74,57,0.00,40.00,8,3,15,0.00
2013-2-10,58.0,52.9,46.0,57.0,47.7,38.0,100,83,61,0.00,40.00,25,12,36,0.00
2013-2-11,54.0,46.2,37.0,51.0,35.1,30.0,94,66,44,0.00,40.00,8,5,14,0.00
2013-2-12,48.0,42.8,34.0,38.0,35.1,32.0,94,75,57,0.00,40.00,7,3,13,0.00
2013-2-13,46.0,41.3,38.0,41.0,38.2,36.0,98,89,77,0.00,40.00,12,8,21,0.00
2013-2-14,59.0,46.6,36.0,46.0,40.8,34.0,100,82,58,0.00,40.00,12,8,17,0.00
2013-2-15,49.0,42.1,31.0,38.0,30.9,23.0,80,65,44,0.00,40.00,10,4,18,0.00
2013-2-16,39.0,32.5,28.0,26.0,20.1,10.0,85,62,30,0.00,40.00,10,4,17,0.00
2013-2-17,52.0,40.1,30.0,32.0,29.0,25.0,89,66,41,0.00,40.00,13,7,20,0.00
2013-2-18,56.0,49.6,42.0,51.0,42.8,31.0,96,78,60,0.00,40.00,22,14,32,0.00
2013-2-19,47.0,39.3,32.0,39.0,24.2,15.0,80,57,27,0.00,40.00,13,7,22,0.00
2013-2-20,32.0,30.3,27.0,23.0,17.8,12.0,74,60,49,0.00,40.00,8,5,14,0.00
2013-2-21,39.0,32.7,29.0,39.0,28.5,21.0,100,85,68,0.00,40.00,9,5,18,0.00
2013-2-22,46.0,37.4,33.0,39.0,34.9,29.0,100,91,70,0.00,40.00,12,6,17,0.00
2013-2-23,39.0,32.8,29.0,33.0,27.9,25.0,96,82,62,0.00,40.00,6,3,12,0.00
2013-2-24,52.0,40.4,29.0,34.0,30.9,29.0,99,71,44,0.00,40.00,7,3,14,0.00
2013-2-25,57.0,47.6,38.0,48.0,33.6,28.0,100,60,38,0.00,40.00,10,6,22,0.00
2013-2-26,51.0,44.6,39.0,51.0,41.5,34.0,100,89,78,0.00,40.00,20,11,28,0.00
2013-2-27,41.0,39.3,37.0,35.0,32.0,30.0,85,75,65,0.00,40.00,11,8,19,0.00
2013-2-28,41.0,37.1,33.0,34.0,30.1,27.0,99,76,63,0.00,40.00,11,6,17,0.00
2013-3-1,37.0,33.8,32.0,34.0,32.4,30.0,100,95,85,0.00,40.00,9,6,15,0.00
2013-3-2,34.0,31.9,28.0,30.0,24.9,20.0,92,76,60,0.00,40.00,10,6,18,0.00
2013-3-3,42.0,34.2,25.0,31.0,24.2,20.0,82,67,52,0.00,40.00,6,3,11,0.00
2013-3-4,57.0,47.5,37.0,48.0,35.5,26.0,99,64,48,0.00,40.00,15,5,21,0.00
2013-3-5,49.0,43.0,35.0,49.0,36.0,22.0,100,78,46,0.00,40.00,18,8,28,0.00
2013-3-6,43.0,36.6,33.0,31.0,26.5,22.0,89,67,58,0.00,40.00,12,6,20,0.00
2013-3-7,47.0,38.0,30.0,34.0,30.1,27.0,91,74,54,0.00,40.00,5,2,10,0.00
2013-3-8,56.0,44.0,32.0,38.0,32.9,29.0,91,67,40,0.00,40.00,7,3,13,0.00
2013-3-9,69.0,56.0,46.0,42.0,36.6,30.0,66,49,31,0.00,40.00,16,7,25,0.00
2013-3-10,66.0,56.1,49.0,56.0,48.9,40.0,100,79,51,0.00,40.00,26,11,36,0.00
2013-3-11,49.0,41.0,35.0,48.0,34.4,30.0,99,77,63,0.00,40.00,11,7,19,0.00
2013-3-12,54.0,41.8,31.0,38.0,30.4,25.0,95,66,39,0.00,40.00,9,4,17,0.00
2013-3-13,48.0,39.5,32.0,32.0,24.3,17.0,77,56,29,0.00,40.00,11,5,19,0.00
2013-3-14,54.0,42.6,32.0,37.0,29.5,23.0,77,61,42,0.00,40.00,12,5,17,0.00
2013-3-15,76.0,58.3,41.0,55.0,46.1,36.0,87,66,41,0.00,40.00,16,10,25,0.00
2013-3-16,73.0,59.1,47.0,55.0,48.6,41.0,81,69,47,0.00,40.00,17,10,25,0.00
2013-3-17,47.0,43.6,40.0,46.0,41.7,37.0,100,93,80,0.00,40.00,11,7,19,0.00
2013-3-18,53.0,46.4,41.0,47.0,43.5,39.0,100,90,68,0.00,40.00,12,5,23,0.00
2013-3-19,52.0,43.5,34.0,40.0,29.3,21.0,95,61,32,0.00,40.00,8,3,13,0.00
2013-3-20,52.0,40.9,31.0,35.0,27.6,14.0,83,62,24,0.00,40.00,12,5,20,0.00
2013-3-21,41.0,34.1,26.0,33.0,21.2,13.0,100,62,38,0.00,40.00,7,3,13,0.00
2013-3-22,45.0,39.1,33.0,35.0,31.6,28.0,100,76,59,0.00,40.00,8,4,14,0.00
2013-3-23,53.0,46.1,42.0,47.0,37.2,31.0,99,72,54,0.00,40.00,10,6,17,0.00
2013-3-24,47.0,42.4,36.0,46.0,39.0,26.0,100,88,67,0.00,40.00,17,9,31,0.00
2013-3-25,40.0,36.0,33.0,28.0,25.9,23.0,82,67,56,0.00,40.00,14,10,23,0.00
2013-3-26,47.0,37.8,31.0,32.0,28.2,25.0,92,70,42,0.00,40.00,9,5,14,0.00
2013-3-27,53.0,42.3,31.0,38.0,29.5,26.0,86,63,38,0.00,40.00,6,2,11,0.00
2013-3-28,62.0,51.8,43.0,40.0,35.5,31.0,80,55,34,0.00,40.00,8,3,13,0.00
2013-3-29,60.0,51.8,45.0,48.0,43.6,38.0,100,74,59,0.00,40.00,11,3,16,0.00
2013-3-30,53.0,47.7,40.0,53.0,46.2,-99.9,100,98,85,0.00,40.00,8,3,12,0.00
2013-3-31,64.0,55.3,51.0,55.0,51.9,48.0,100,89,60,0.00,40.00,7,2,11,0.00
2013-4-1,59.0,50.4,45.0,49.0,39.8,32.0,100,69,46,0.00,40.00,11,6,18,0.00
2013-4-2,45.0,42.1,40.0,34.0,30.0,24.0,77,63,46,0.00,40.00,9,4,14,0.00
2013-4-3,53.0,44.5,34.0,33.0,27.1,22.0,80,53,30,0.00,40.00,12,6,23,0.00
2013-4-4,50.0,46.0,43.0,46.0,38.3,28.0,100,75,49,0.00,40.00,7,3,12,0.00
2013-4-5,69.0,53.7,38.0,45.0,37.4,30.0,100,60,28,0.00,40.00,6,2,10,0.00
2013-4-6,74.0,60.5,46.0,46.0,42.0,38.0,82,54,28,0.00,40.00,19,10,29,0.00
2013-4-7,73.0,64.1,58.0,58.0,53.1,47.0,83,68,58,0.00,40.00,16,11,24,0.00
2013-4-8,77.0,67.5,60.0,59.0,55.7,52.0,82,67,47,0.00,40.00,21,10,31,0.00
2013-4-9,82.0,71.9,63.0,65.0,61.2,55.0,86,70,49,0.00,40.00,19,10,31,0.00
2013-4-10,85.0,75.9,65.0,66.0,64.5,62.0,100,69,49,0.00,40.00,19,13,28,0.00
2013-4-11,66.0,52.8,45.0,66.0,50.0,40.0,100,91,71,0.00,40.00,13,6,21,0.00
2013-4-12,63.0,50.9,41.0,42.0,39.1,35.0,93,67,36,0.00,40.00,14,6,22,0.00
2013-4-13,66.0,53.1,40.0,49.0,40.9,35.0,86,65,42,0.00,40.00,8,2,13,0.00
2013-4-14,73.0,62.5,52.0,58.0,50.2,43.0,84,65,47,0.00,40.00,18,8,28,0.00
2013-4-15,81.0,68.1,57.0,63.0,58.7,54.0,93,73,49,0.00,40.00,15,9,23,0.00
2013-4-16,86.0,74.6,63.0,70.0,66.2,59.0,95,76,53,0.00,40.00,16,8,25,0.00
2013-4-17,85.0,73.1,59.0,72.0,64.7,59.0,100,77,51,0.00,40.00,17,8,26,0.00
2013-4-18,79.0,68.9,47.0,68.0,61.1,41.0,100,78,54,0.00,40.00,25,14,37,0.00
2013-4-19,55.0,46.6,43.0,41.0,33.0,29.0,80,60,37,0.00,40.00,13,7,25,0.00
2013-4-20,61.0,51.7,40.0,42.0,37.3,34.0,88,60,39,0.00,40.00,6,2,9,0.00
2013-4-21,65.0,55.4,45.0,41.0,38.4,36.0,71,54,35,0.00,40.00,8,4,14,0.00
2013-4-22,73.0,61.3,49.0,53.0,45.0,36.0,72,56,38,0.00,40.00,11,4,16,0.00
2013-4-23,74.0,64.9,56.0,61.0,56.4,49.0,86,74,58,0.00,40.00,17,9,26,0.00
2013-4-24,54.0,47.6,42.0,51.0,40.4,36.0,98,77,50,0.00,40.00,11,5,23,0.00
2013-4-25,66.0,53.3,41.0,48.0,41.1,36.0,98,67,33,0.00,40.00,9,3,13,0.00
2013-4-26,55.0,52.8,51.0,52.0,48.2,44.0,100,84,70,0.00,40.00,9,2,18,0.00
2013-4-27,62.0,56.6,51.0,61.0,56.4,51.0,100,99,94,0.00,40.00,13,4,21,0.00
2013-4-28,63.0,57.6,54.0,57.0,54.2,52.0,100,89,70,0.00,40.00,8,3,13,0.00
2013-4-29,74.0,62.4,50.0,62.0,56.6,50.0,100,83,60,0.00,40.00,11,4,14,0.00
2013-4-30,81.0,69.8,59.0,61.0,57.0,54.0,87,66,41,0.00,40.00,10,4,14,0.00
2013-5-1,80.0,70.4,61.0,65.0,60.0,55.0,87,70,54,0.00,40.00,12,3,18,0.00
2013-5-2,71.0,65.4,58.0,64.0,59.8,57.0,100,83,63,0.00,40.00,6,1,11,0.00
2013-5-3,62.0,48.9,42.0,62.0,48.9,42.0,100,100,96,0.00,40.00,8,5,15,0.00
2013-5-4,52.0,46.0,38.0,45.0,40.0,36.0,100,80,61,0.00,40.00,7,3,13,0.00
2013-5-5,56.0,51.9,45.0,54.0,47.8,43.0,100,86,73,0.00,40.00,8,4,15,0.00
2013-5-6,65.0,58.9,52.0,58.0,55.3,52.0,100,89,72,0.00,40.00,8,4,17,0.00
2013-5-7,74.0,64.6,54.0,63.0,57.5,54.0,100,80,54,0.00,40.00,7,2,13,0.00
2013-5-8,82.0,69.5,57.0,64.0,59.1,54.0,100,73,39,0.00,40.00,6,2,10,0.00
2013-5-9,81.0,72.1,64.0,63.0,60.5,58.0,86,68,47,0.00,40.00,17,7,26,0.00
2013-5-10,78.0,67.5,63.0,67.0,61.2,-99.9,100,85,57,0.00,40.00,10,4,16,0.00
2013-5-11,75.0,64.2,57.0,59.0,51.7,-99.9,95,68,40,0.00,40.00,10,4,17,0.00
2013-5-12,67.0,57.2,45.0,48.0,35.7,26.0,87,49,23,0.00,40.00,8,3,15,0.00
2013-5-13,72.0,61.7,48.0,52.0,43.9,34.0,95,57,28,0.00,40.00,9,2,15,0.00
2013-5-14,89.0,74.5,61.0,60.0,55.0,51.0,78,54,31,0.00,40.00,14,9,25,0.00
2013-5-15,86.0,75.8,65.0,61.0,56.0,49.0,76,52,29,0.00,40.00,17,8,25,0.00
2013-5-16,79.0,69.0,68.0,63.0,41.2,-99.9,78,64,49,0.00,40.00,12,5,18,0.00
2013-5-17,75.0,68.6,66.0,70.0,61.9,-99.9,100,92,71,0.00,40.00,10,3,15,0.00
2013-5-18,84.0,73.2,62.0,72.0,66.7,62.0,100,82,53,0.00,40.00,5,2,9,0.00
2013-5-19,90.0,80.8,73.0,74.0,68.9,60.0,100,70,37,0.00,40.00,14,8,22,0.00
2013-5-20,90.0,81.1,74.0,71.0,68.5,65.0,89,67,44,0.00,40.00,16,11,25,0.00
2013-5-21,80.0,69.7,64.0,70.0,67.0,64.0,100,92,68,0.00,40.00,16,7,26,0.00
2013-5-22,79.0,71.0,64.0,67.0,63.3,58.0,100,79,48,0.00,40.00,16,6,23,0.00
2013-5-23,79.0,69.2,60.0,65.0,58.8,55.0,100,71,45,0.00,40.00,9,4,21,0.00
2013-5-24,71.0,61.4,51.0,56.0,49.0,45.0,90,66,40,0.00,40.00,7,4,15,0.00
2013-5-25,77.0,66.4,53.0,58.0,50.6,45.0,92,59,35,0.00,40.00,9,2,13,0.00
2013-5-26,85.0,73.7,59.0,60.0,57.2,53.0,93,60,35,0.00,40.00,10,4,16,0.00
2013-5-27,87.0,77.5,68.0,70.0,61.7,56.0,74,59,45,0.00,40.00,17,9,24,0.00
2013-5-28,89.0,79.9,71.0,68.0,63.8,59.0,83,59,42,0.00,40.00,17,11,28,0.00
2013-5-29,88.0,79.9,70.0,67.0,62.3,56.0,72,56,35,0.00,40.00,16,10,25,0.00
2013-5-30,88.0,80.1,74.0,70.0,67.4,65.0,89,66,48,0.00,40.00,22,13,31,0.00
2013-5-31,83.0,76.2,68.0,74.0,71.9,68.0,100,87,73,0.00,40.00,16,9,23,0.00
2013-6-1,79.0,70.3,64.0,74.0,68.4,64.0,100,94,84,0.00,40.00,15,7,29,0.00
2013-6-2,77.0,70.4,65.0,68.0,63.1,59.0,100,79,56,0.00,40.00,6,3,12,0.00
2013-6-3,76.0,67.7,61.0,62.0,59.7,57.0,100,77,52,0.00,40.00,6,3,13,0.00
2013-6-4,82.0,70.9,61.0,66.0,59.7,57.0,87,69,47,0.00,40.00,5,2,12,0.00
2013-6-5,86.0,76.7,67.0,71.0,65.6,63.0,100,70,48,0.00,40.00,12,2,18,0.00
2013-6-6,82.0,74.4,67.0,69.0,65.4,62.0,100,76,52,0.00,40.00,7,4,14,0.00
2013-6-7,80.0,72.3,66.0,64.0,59.0,53.0,79,64,42,0.00,40.00,7,4,13,0.00
2013-6-8,82.0,72.6,60.0,64.0,59.3,53.0,100,66,39,0.00,40.00,7,2,11,0.00
2013-6-9,79.0,71.4,67.0,75.0,66.4,59.0,100,85,69,0.00,40.00,12,3,21,0.00
2013-6-10,88.0,76.8,66.0,70.0,65.5,59.0,100,73,38,0.00,40.00,10,5,18,0.00
2013-6-11,98.0,84.2,70.0,74.0,69.2,64.0,90,64,34,0.00,40.00,6,3,13,0.00
2013-6-12,96.0,86.3,75.0,74.0,70.8,65.0,94,63,38,0.00,40.00,14,7,23,0.00
2013-6-13,86.0,81.2,73.0,72.0,67.7,64.0,82,65,51,0.00,40.00,9,6,19,0.00
2013-6-14,87.0,76.8,66.0,68.0,60.4,53.0,100,62,32,0.00,40.00,8,2,19,0.00
2013-6-15,89.0,77.9,65.0,67.0,62.5,57.0,99,63,34,0.00,40.00,9,3,16,0.00
2013-6-16,90.0,80.9,74.0,72.0,67.4,64.0,85,65,44,0.00,40.00,7,3,13,0.00
2013-6-17,89.0,77.0,67.0,75.0,71.1,66.0,100,84,47,0.00,40.00,20,4,29,0.00
2013-6-18,85.0,76.0,68.0,74.0,67.9,65.0,100,78,51,0.00,40.00,6,3,13,0.00
2013-6-19,88.0,79.1,68.0,72.0,68.5,58.0,100,72,48,0.00,40.00,6,2,15,0.00
2013-6-25,79.0,79.0,79.0,73.0,73.0,73.0,81,81,81,0.00,40.00,5,5,8,0.00
2013-6-28,80.0,80.0,80.0,71.0,71.0,71.0,73,73,73,0.00,40.00,0,0,0,0.00
2013-7-28,66.0,64.5,63.0,61.0,59.0,57.0,84,82,81,0.00,40.00,1,0,3,0.00
2013-7-31,75.0,75.0,75.0,75.0,75.0,75.0,100,100,100,0.00,40.00,0,0,0,0.00
2013-8-1,83.0,83.0,83.0,70.0,70.0,70.0,65,65,65,0.00,40.00,0,0,0,0.00
2013-8-3,74.0,74.0,74.0,74.0,74.0,74.0,99,99,99,0.00,40.00,0,0,0,0.00
2013-8-6,74.0,74.0,74.0,74.0,74.0,74.0,100,100,100,0.00,40.00,1,0,3,0.00
2013-9-22,57.0,57.0,57.0,52.0,52.0,52.0,82,82,82,0.00,40.00,0,0,0,0.00
2013-9-28,71.0,71.0,71.0,60.0,60.0,60.0,70,70,70,0.00,40.00,5,5,8,0.00
2013-10-10,63.0,63.0,63.0,63.0,63.0,63.0,97,97,97,0.00,40.00,0,0,0,0.00
2013-12-20,59.0,59.0,59.0,54.0,54.0,54.0,84,84,84,0.00,40.00,11,11,14,0.00
2013-12-21,-200.0,0.0,200.0,-99.9,-99.9,-99.9,0,0,100,0.00,40.00,4,4,7,0.00
2013-12-23,31.0,31.0,31.0,24.0,24.0,24.0,73,73,73,0.00,40.00,0,0,0,0.00
2013-12-24,18.0,18.0,18.0,12.0,12.0,12.0,75,75,75,0.00,40.00,7,7,11,0.00
2013-12-25,39.0,32.0,25.0,26.0,22.0,18.0,75,68,60,0.00,40.00,9,4,12,0.00
2013-12-26,35.0,34.7,33.0,29.0,29.0,29.0,86,80,79,0.00,40.00,3,3,4,0.00